Horace Cenac — WDG7714 — position and weather

sailwx.info

Track history (hours):
 
Tides and Currents Weather Stations Pressure Air Temp Water Temp Dewpoint Dewpoint Depression Visibility Wind Speed Wind Dir Waves Ship Positions

Horace Cenac

Owner: Cenac Towing Company LLC, Houma, LA. More information available from US FCC via Universal Licensing System and Coast Guard Vessel Documentation Center.

Last reported at 2018-Feb-16 03:20 UTC. Time now 2018-Feb-19 07:59 UTC.
Position N 29°31' W 092°56'.

Length 29 m; draft 4 m.

Type: Ship (hazmat cat B). MMSI: 367570080.

Date/timePositionNaut miles runAvg speedWind from/ knotsBaromVisibWave heightAir tempDewpointWater temp
2018-Feb-16 03:20N 29°31' W 092°56'2 7.3
2018-Feb-16 03:00N 29°31' W 092°59'26 6.6
2018-Feb-15 23:07N 29°35' W 093°28'1 6.8
2018-Feb-15 22:57N 29°35' W 093°29'3 6.7
2018-Feb-15 22:29N 29°36' W 093°33'3 6.5
2018-Feb-15 22:00N 29°36' W 093°36'3 6.3
2018-Feb-15 21:30N 29°37' W 093°40'3 6.3
2018-Feb-15 21:00N 29°38' W 093°43'3 6.1
2018-Feb-15 20:30N 29°38' W 093°47'2 3.8
2018-Feb-15 20:01N 29°38' W 093°49'2 5.0
2018-Feb-15 19:30N 29°41' W 093°50'3 6.2
2018-Feb-15 19:01N 29°43' W 093°52'1 2.1
2018-Feb-15 18:30N 29°44' W 093°52'4 7.7
2018-Feb-15 18:01N 29°46' W 093°56'4 7.1
2018-Feb-15 17:30N 29°49' W 093°58'1 1.4
2018-Feb-15 17:01N 29°49' W 093°59'0 0.0
2018-Feb-15 16:30N 29°49' W 093°59'0 0.0
2018-Feb-15 16:00N 29°49' W 093°59'0 0.0
2018-Feb-15 15:31N 29°49' W 093°59'0 0.0
2018-Feb-15 14:59N 29°49' W 093°59'0 0.0
2018-Feb-15 14:30N 29°49' W 093°59'0 0.0
2018-Feb-15 14:00N 29°49' W 093°59'0 0.0
2018-Feb-15 13:31N 29°49' W 093°59'0 0.0
2018-Feb-15 13:00N 29°49' W 093°59'0 0.0
2018-Feb-15 12:31N 29°49' W 093°59'0 0.0
2018-Feb-15 12:00N 29°49' W 093°59'0 0.0
2018-Feb-15 11:30N 29°49' W 093°59'0 0.0
2018-Feb-15 11:00N 29°49' W 093°59'0 0.0
2018-Feb-15 10:30N 29°49' W 093°59'0 0.0
2018-Feb-15 10:00N 29°49' W 093°59'0 0.0
2018-Feb-15 09:30N 29°49' W 093°59'0 0.0
2018-Feb-15 09:00N 29°49' W 093°59'0 0.0
2018-Feb-15 08:30N 29°49' W 093°59'0 0.0
2018-Feb-15 08:00N 29°49' W 093°59'0 0.0
2018-Feb-15 07:30N 29°49' W 093°59'0 0.0
2018-Feb-15 07:00N 29°49' W 093°59'0 0.0
2018-Feb-15 06:30N 29°49' W 093°59'0 0.0
2018-Feb-15 06:00N 29°49' W 093°59'0 0.0
2018-Feb-15 05:30N 29°49' W 093°59'0 0.0
2018-Feb-15 05:00N 29°49' W 093°59'0 0.0
2018-Feb-15 04:30N 29°49' W 093°59'0 0.0
2018-Feb-15 04:00N 29°49' W 093°59'0 0.0
2018-Feb-15 03:30N 29°49' W 093°59'0 0.0
2018-Feb-15 03:01N 29°49' W 093°59'0 0.1
2018-Feb-15 02:31N 29°49' W 093°59'0 0.1
2018-Feb-15 02:00N 29°49' W 093°59'0 0.0
2018-Feb-15 01:30N 29°49' W 093°59'0 0.0
2018-Feb-15 01:00N 29°49' W 093°59'0 0.0
2018-Feb-15 00:30N 29°49' W 093°59'0 0.0
2018-Feb-15 00:00N 29°49' W 093°59'0 0.0
2018-Feb-14 23:30N 29°49' W 093°59'0 0.0
2018-Feb-14 23:01N 29°49' W 093°59'0 0.0
2018-Feb-14 22:30N 29°49' W 093°59'0 0.0
2018-Feb-14 22:00N 29°49' W 093°59'0 0.0
2018-Feb-14 21:30N 29°49' W 093°59'0 0.1
2018-Feb-14 21:00N 29°49' W 093°59'0 0.1
2018-Feb-14 20:30N 29°49' W 093°59'0 0.0
2018-Feb-14 20:00N 29°49' W 093°59'0 0.0
2018-Feb-14 19:30N 29°49' W 093°59'0 0.8
2018-Feb-14 19:00N 29°49' W 093°58'1 2.4
2018-Feb-14 18:30N 29°50' W 093°57'0 0.0
2018-Feb-14 18:00N 29°50' W 093°57'0 0.0
2018-Feb-14 17:30N 29°50' W 093°57'0 0.0
2018-Feb-14 17:00N 29°50' W 093°57'0 0.0
2018-Feb-14 16:30N 29°50' W 093°57'0 0.0
2018-Feb-14 16:00N 29°50' W 093°57'0 0.0
2018-Feb-14 15:30N 29°50' W 093°57'0 0.0
2018-Feb-14 15:00N 29°50' W 093°57'0 0.0
2018-Feb-14 14:30N 29°50' W 093°57'0 0.0
2018-Feb-14 13:57N 29°50' W 093°57'0 0.0
2018-Feb-14 13:30N 29°50' W 093°57'0 0.0
2018-Feb-14 13:00N 29°50' W 093°57'0 0.0
2018-Feb-14 12:30N 29°50' W 093°57'0 0.0
2018-Feb-14 12:00N 29°50' W 093°57'0 0.0
2018-Feb-14 11:30N 29°50' W 093°57'0 0.0
2018-Feb-14 11:00N 29°50' W 093°57'0 0.0
2018-Feb-14 10:30N 29°50' W 093°57'0 0.0
2018-Feb-14 10:00N 29°50' W 093°57'0 0.0
2018-Feb-14 09:30N 29°50' W 093°57'0 0.0
2018-Feb-14 09:00N 29°50' W 093°57'0 0.0
2018-Feb-14 08:30N 29°50' W 093°57'0 0.0
2018-Feb-14 08:00N 29°50' W 093°57'0 0.0
2018-Feb-14 07:30N 29°50' W 093°57'0 0.0
2018-Feb-14 07:00N 29°50' W 093°57'0 0.0
2018-Feb-14 06:30N 29°50' W 093°57'0 0.0
2018-Feb-14 06:00N 29°50' W 093°57'0 0.0
2018-Feb-14 05:30N 29°50' W 093°57'0 0.0
2018-Feb-14 05:00N 29°50' W 093°57'0 0.0
2018-Feb-14 04:30N 29°50' W 093°57'0 0.0
2018-Feb-14 04:00N 29°50' W 093°57'0 0.0
2018-Feb-14 03:30N 29°50' W 093°57'0 0.0
2018-Feb-14 03:00N 29°50' W 093°57'0 0.0
2018-Feb-14 02:30N 29°50' W 093°57'0 0.0
2018-Feb-14 02:00N 29°50' W 093°57'0 0.0
2018-Feb-14 01:30N 29°50' W 093°57'0 0.0
2018-Feb-14 01:00N 29°50' W 093°57'0 0.0
2018-Feb-14 00:30N 29°50' W 093°57'0 0.0
2018-Feb-14 00:01N 29°50' W 093°57'0 0.0
2018-Feb-13 23:30N 29°50' W 093°57'0 0.0
2018-Feb-13 23:01N 29°50' W 093°57'0 0.0
2018-Feb-13 22:31N 29°50' W 093°57'0 0.0
2018-Feb-13 22:01N 29°50' W 093°57'0 0.0
2018-Feb-13 21:31N 29°50' W 093°57'0 0.0
2018-Feb-13 21:01N 29°50' W 093°57'0 0.0
2018-Feb-13 20:31N 29°50' W 093°57'0 0.1
2018-Feb-13 20:00N 29°50' W 093°57'0 0.0
2018-Feb-13 19:31N 29°50' W 093°57'0 0.0
2018-Feb-13 19:00N 29°50' W 093°57'0 0.0
2018-Feb-13 18:30N 29°50' W 093°57'0 0.2
2018-Feb-13 18:01N 29°50' W 093°57'0 0.0
2018-Feb-13 17:31N 29°50' W 093°57'0 0.0
2018-Feb-13 17:00N 29°50' W 093°57'1 2.5
2018-Feb-13 16:31N 29°49' W 093°57'3 6.1
2018-Feb-13 16:01N 29°46' W 093°56'3 6.4
2018-Feb-13 15:30N 29°44' W 093°53'3 5.9
2018-Feb-13 15:00N 29°42' W 093°51'3 5.0
2018-Feb-13 14:30N 29°40' W 093°50'0 0.2
2018-Feb-13 14:01N 29°39' W 093°50'1 2.6
2018-Feb-13 13:30N 29°38' W 093°49'2 3.4
2018-Feb-13 13:00N 29°37' W 093°48'2 4.3
2018-Feb-13 12:30N 29°37' W 093°45'1 2.5
2018-Feb-13 12:01N 29°37' W 093°44'1 2.6
2018-Feb-13 11:30N 29°37' W 093°45'1 2.1
2018-Feb-13 11:00N 29°37' W 093°46'2 3.6
2018-Feb-13 10:30N 29°37' W 093°44'2 4.6
2018-Feb-13 10:00N 29°36' W 093°42'2 4.5
2018-Feb-13 09:29N 29°36' W 093°39'  
2018-Feb-09 14:30N 27°55' W 082°27'1 0.1
2018-Feb-08 23:00N 27°55' W 082°26'1 0.0
2018-Feb-08 01:28N 27°55' W 082°26'0 0.0
2018-Feb-08 00:58N 27°55' W 082°26'0 0.0
2018-Feb-08 00:28N 27°55' W 082°26'0 0.0
2018-Feb-07 23:58N 27°55' W 082°26'0 0.0
2018-Feb-07 23:29N 27°55' W 082°26'0 0.0
2018-Feb-07 23:00N 27°55' W 082°26'0 0.0
2018-Feb-07 22:30N 27°55' W 082°26'0 0.0
2018-Feb-07 22:00N 27°55' W 082°26'0 0.1
2018-Feb-07 21:31N 27°55' W 082°26'  
Track history (hours):
 
Tides and Currents Weather Stations Pressure Air Temp Water Temp Dewpoint Dewpoint Depression Visibility Wind Speed Wind Dir Waves Ship Positions

Horace Cenac

Owner: Cenac Towing Company LLC, Houma, LA. More information available from US FCC via Universal Licensing System and Coast Guard Vessel Documentation Center.

Last reported at 2018-Feb-16 03:20 UTC. Time now 2018-Feb-19 07:59 UTC.
Position N 29°31' W 092°56'.

Length 29 m; draft 4 m.

Type: Ship (hazmat cat B). MMSI: 367570080.

Date/timePositionNaut miles runAvg speedWind from/ knotsBaromVisibWave heightAir tempDewpointWater temp
2018-Feb-16 03:20N 29°31' W 092°56'2 7.3
2018-Feb-16 03:00N 29°31' W 092°59'26 6.6
2018-Feb-15 23:07N 29°35' W 093°28'1 6.8
2018-Feb-15 22:57N 29°35' W 093°29'3 6.7
2018-Feb-15 22:29N 29°36' W 093°33'3 6.5
2018-Feb-15 22:00N 29°36' W 093°36'3 6.3
2018-Feb-15 21:30N 29°37' W 093°40'3 6.3
2018-Feb-15 21:00N 29°38' W 093°43'3 6.1
2018-Feb-15 20:30N 29°38' W 093°47'2 3.8
2018-Feb-15 20:01N 29°38' W 093°49'2 5.0
2018-Feb-15 19:30N 29°41' W 093°50'3 6.2
2018-Feb-15 19:01N 29°43' W 093°52'1 2.1
2018-Feb-15 18:30N 29°44' W 093°52'4 7.7
2018-Feb-15 18:01N 29°46' W 093°56'4 7.1
2018-Feb-15 17:30N 29°49' W 093°58'1 1.4
2018-Feb-15 17:01N 29°49' W 093°59'0 0.0
2018-Feb-15 16:30N 29°49' W 093°59'0 0.0
2018-Feb-15 16:00N 29°49' W 093°59'0 0.0
2018-Feb-15 15:31N 29°49' W 093°59'0 0.0
2018-Feb-15 14:59N 29°49' W 093°59'0 0.0
2018-Feb-15 14:30N 29°49' W 093°59'0 0.0
2018-Feb-15 14:00N 29°49' W 093°59'0 0.0
2018-Feb-15 13:31N 29°49' W 093°59'0 0.0
2018-Feb-15 13:00N 29°49' W 093°59'0 0.0
2018-Feb-15 12:31N 29°49' W 093°59'0 0.0
2018-Feb-15 12:00N 29°49' W 093°59'0 0.0
2018-Feb-15 11:30N 29°49' W 093°59'0 0.0
2018-Feb-15 11:00N 29°49' W 093°59'0 0.0
2018-Feb-15 10:30N 29°49' W 093°59'0 0.0
2018-Feb-15 10:00N 29°49' W 093°59'0 0.0
2018-Feb-15 09:30N 29°49' W 093°59'0 0.0
2018-Feb-15 09:00N 29°49' W 093°59'0 0.0
2018-Feb-15 08:30N 29°49' W 093°59'0 0.0
2018-Feb-15 08:00N 29°49' W 093°59'0 0.0
2018-Feb-15 07:30N 29°49' W 093°59'0 0.0
2018-Feb-15 07:00N 29°49' W 093°59'0 0.0
2018-Feb-15 06:30N 29°49' W 093°59'0 0.0
2018-Feb-15 06:00N 29°49' W 093°59'0 0.0
2018-Feb-15 05:30N 29°49' W 093°59'0 0.0
2018-Feb-15 05:00N 29°49' W 093°59'0 0.0
2018-Feb-15 04:30N 29°49' W 093°59'0 0.0
2018-Feb-15 04:00N 29°49' W 093°59'0 0.0
2018-Feb-15 03:30N 29°49' W 093°59'0 0.0
2018-Feb-15 03:01N 29°49' W 093°59'0 0.1
2018-Feb-15 02:31N 29°49' W 093°59'0 0.1
2018-Feb-15 02:00N 29°49' W 093°59'0 0.0
2018-Feb-15 01:30N 29°49' W 093°59'0 0.0
2018-Feb-15 01:00N 29°49' W 093°59'0 0.0
2018-Feb-15 00:30N 29°49' W 093°59'0 0.0
2018-Feb-15 00:00N 29°49' W 093°59'0 0.0
2018-Feb-14 23:30N 29°49' W 093°59'0 0.0
2018-Feb-14 23:01N 29°49' W 093°59'0 0.0
2018-Feb-14 22:30N 29°49' W 093°59'0 0.0
2018-Feb-14 22:00N 29°49' W 093°59'0 0.0
2018-Feb-14 21:30N 29°49' W 093°59'0 0.1
2018-Feb-14 21:00N 29°49' W 093°59'0 0.1
2018-Feb-14 20:30N 29°49' W 093°59'0 0.0
2018-Feb-14 20:00N 29°49' W 093°59'0 0.0
2018-Feb-14 19:30N 29°49' W 093°59'0 0.8
2018-Feb-14 19:00N 29°49' W 093°58'1 2.4
2018-Feb-14 18:30N 29°50' W 093°57'0 0.0
2018-Feb-14 18:00N 29°50' W 093°57'0 0.0
2018-Feb-14 17:30N 29°50' W 093°57'0 0.0
2018-Feb-14 17:00N 29°50' W 093°57'0 0.0
2018-Feb-14 16:30N 29°50' W 093°57'0 0.0
2018-Feb-14 16:00N 29°50' W 093°57'0 0.0
2018-Feb-14 15:30N 29°50' W 093°57'0 0.0
2018-Feb-14 15:00N 29°50' W 093°57'0 0.0
2018-Feb-14 14:30N 29°50' W 093°57'0 0.0
2018-Feb-14 13:57N 29°50' W 093°57'0 0.0
2018-Feb-14 13:30N 29°50' W 093°57'0 0.0
2018-Feb-14 13:00N 29°50' W 093°57'0 0.0
2018-Feb-14 12:30N 29°50' W 093°57'0 0.0
2018-Feb-14 12:00N 29°50' W 093°57'0 0.0
2018-Feb-14 11:30N 29°50' W 093°57'0 0.0
2018-Feb-14 11:00N 29°50' W 093°57'0 0.0
2018-Feb-14 10:30N 29°50' W 093°57'0 0.0
2018-Feb-14 10:00N 29°50' W 093°57'0 0.0
2018-Feb-14 09:30N 29°50' W 093°57'0 0.0
2018-Feb-14 09:00N 29°50' W 093°57'0 0.0
2018-Feb-14 08:30N 29°50' W 093°57'0 0.0
2018-Feb-14 08:00N 29°50' W 093°57'0 0.0
2018-Feb-14 07:30N 29°50' W 093°57'0 0.0
2018-Feb-14 07:00N 29°50' W 093°57'0 0.0
2018-Feb-14 06:30N 29°50' W 093°57'0 0.0
2018-Feb-14 06:00N 29°50' W 093°57'0 0.0
2018-Feb-14 05:30N 29°50' W 093°57'0 0.0
2018-Feb-14 05:00N 29°50' W 093°57'0 0.0
2018-Feb-14 04:30N 29°50' W 093°57'0 0.0
2018-Feb-14 04:00N 29°50' W 093°57'0 0.0
2018-Feb-14 03:30N 29°50' W 093°57'0 0.0
2018-Feb-14 03:00N 29°50' W 093°57'0 0.0
2018-Feb-14 02:30N 29°50' W 093°57'0 0.0
2018-Feb-14 02:00N 29°50' W 093°57'0 0.0
2018-Feb-14 01:30N 29°50' W 093°57'0 0.0
2018-Feb-14 01:00N 29°50' W 093°57'0 0.0
2018-Feb-14 00:30N 29°50' W 093°57'0 0.0
2018-Feb-14 00:01N 29°50' W 093°57'0 0.0
2018-Feb-13 23:30N 29°50' W 093°57'0 0.0
2018-Feb-13 23:01N 29°50' W 093°57'0 0.0
2018-Feb-13 22:31N 29°50' W 093°57'0 0.0
2018-Feb-13 22:01N 29°50' W 093°57'0 0.0
2018-Feb-13 21:31N 29°50' W 093°57'0 0.0
2018-Feb-13 21:01N 29°50' W 093°57'0 0.0
2018-Feb-13 20:31N 29°50' W 093°57'0 0.1
2018-Feb-13 20:00N 29°50' W 093°57'0 0.0
2018-Feb-13 19:31N 29°50' W 093°57'0 0.0
2018-Feb-13 19:00N 29°50' W 093°57'0 0.0
2018-Feb-13 18:30N 29°50' W 093°57'0 0.2
2018-Feb-13 18:01N 29°50' W 093°57'0 0.0
2018-Feb-13 17:31N 29°50' W 093°57'0 0.0
2018-Feb-13 17:00N 29°50' W 093°57'1 2.5
2018-Feb-13 16:31N 29°49' W 093°57'3 6.1
2018-Feb-13 16:01N 29°46' W 093°56'3 6.4
2018-Feb-13 15:30N 29°44' W 093°53'3 5.9
2018-Feb-13 15:00N 29°42' W 093°51'3 5.0
2018-Feb-13 14:30N 29°40' W 093°50'0 0.2
2018-Feb-13 14:01N 29°39' W 093°50'1 2.6
2018-Feb-13 13:30N 29°38' W 093°49'2 3.4
2018-Feb-13 13:00N 29°37' W 093°48'2 4.3
2018-Feb-13 12:30N 29°37' W 093°45'1 2.5
2018-Feb-13 12:01N 29°37' W 093°44'1 2.6
2018-Feb-13 11:30N 29°37' W 093°45'1 2.1
2018-Feb-13 11:00N 29°37' W 093°46'2 3.6
2018-Feb-13 10:30N 29°37' W 093°44'2 4.6
2018-Feb-13 10:00N 29°36' W 093°42'2 4.5
2018-Feb-13 09:29N 29°36' W 093°39'  
2018-Feb-09 14:30N 27°55' W 082°27'1 0.1
2018-Feb-08 23:00N 27°55' W 082°26'1 0.0
2018-Feb-08 01:28N 27°55' W 082°26'0 0.0
2018-Feb-08 00:58N 27°55' W 082°26'0 0.0
2018-Feb-08 00:28N 27°55' W 082°26'0 0.0
2018-Feb-07 23:58N 27°55' W 082°26'0 0.0
2018-Feb-07 23:29N 27°55' W 082°26'0 0.0
2018-Feb-07 23:00N 27°55' W 082°26'0 0.0
2018-Feb-07 22:30N 27°55' W 082°26'0 0.0
2018-Feb-07 22:00N 27°55' W 082°26'0 0.1
2018-Feb-07 21:31N 27°55' W 082°26'  

Dump ship's entire track history